Time;durP1;ratioP1;P1;durP2;ratioP2;P2;SDS_P1;SDS_P2;PMS_P1;PMS_P2;Temp;Humidity;BMP_temperature;BMP_pressure;BME280_temperature;BME280_humidity;BME280_pressure;Samples;Min_cycle;Max_cycle;Signal;HPM_P1;HPM_P2
2022/11/04 00:00:33;;;;;;;7.90;2.35;;;18.70;70.30;;;;;;6307567;22;20209;-80
2022/11/04 00:02:59;;;;;;;7.47;2.50;;;18.70;70.30;;;;;;6280320;22;20572;-80
2022/11/04 00:05:25;;;;;;;5.57;2.55;;;18.70;70.20;;;;;;6254612;22;20146;-81
2022/11/04 00:13:14;;;;;;;6.45;2.25;;;18.70;70.40;;;;;;6309246;22;20158;-81
2022/11/04 00:18:24;;;;;;;5.40;2.45;;;18.70;70.40;;;;;;6310004;22;20559;-80
2022/11/04 00:28:55;;;;;;;5.78;2.40;;;18.60;70.60;;;;;;6308133;22;20142;-80
2022/11/04 00:34:05;;;;;;;5.93;2.70;;;18.60;70.50;;;;;;6308384;22;20128;-80
2022/11/04 00:36:31;;;;;;;5.70;2.38;;;18.60;70.70;;;;;;6307717;22;20129;-80
2022/11/04 00:39:01;;;;;;;6.25;2.63;;;18.60;70.40;;;;;;6309120;22;20575;-80
2022/11/04 00:41:27;;;;;;;5.40;2.22;;;18.60;70.50;;;;;;6255729;22;20148;-80
2022/11/04 00:44:01;;;;;;;6.40;2.40;;;18.60;70.50;;;;;;6307705;22;20213;-80
2022/11/04 00:46:28;;;;;;;4.97;2.70;;;18.60;71.00;;;;;;6231621;22;20201;-80
2022/11/04 00:48:54;;;;;;;5.35;2.65;;;18.60;70.70;;;;;;6309109;22;20208;-80
2022/11/04 00:51:20;;;;;;;7.93;2.80;;;18.60;71.00;;;;;;6309386;22;20128;-80
2022/11/04 00:53:46;;;;;;;5.03;2.67;;;18.50;71.10;;;;;;6309433;22;20136;-80
2022/11/04 00:56:12;;;;;;;5.40;2.35;;;18.50;71.40;;;;;;6307951;22;20207;-80
2022/11/04 00:58:38;;;;;;;6.78;2.35;;;18.50;71.30;;;;;;6331376;22;20132;-80
2022/11/04 01:01:12;;;;;;;5.93;2.30;;;18.60;70.90;;;;;;6336174;22;20200;-80
2022/11/04 01:03:38;;;;;;;6.03;2.28;;;18.50;70.90;;;;;;6322785;22;20483;-79
2022/11/04 01:06:04;;;;;;;5.60;2.33;;;18.60;70.60;;;;;;6310855;22;20128;-79
2022/11/04 01:08:31;;;;;;;5.50;2.40;;;18.60;70.90;;;;;;6310711;22;20197;-80
2022/11/04 01:11:04;;;;;;;4.65;2.28;;;18.50;70.90;;;;;;6257370;22;20179;-80
2022/11/04 01:13:37;;;;;;;7.55;2.38;;;18.50;70.90;;;;;;6206706;22;20587;-79
2022/11/04 01:16:09;;;;;;;5.35;2.28;;;18.50;71.00;;;;;;6231675;22;20567;-79
2022/11/04 01:18:35;;;;;;;4.60;2.30;;;18.50;70.70;;;;;;6206340;22;20159;-79
2022/11/04 01:21:06;;;;;;;7.45;2.80;;;18.60;70.90;;;;;;6310656;22;20262;-80
2022/11/04 01:23:37;;;;;;;5.50;2.30;;;18.60;70.90;;;;;;6231258;22;20156;-80
2022/11/04 01:26:05;;;;;;;5.13;2.25;;;18.60;71.10;;;;;;6231731;22;20156;-79
2022/11/04 01:28:31;;;;;;;4.68;2.47;;;18.60;70.70;;;;;;6282737;22;20170;-80
2022/11/04 01:30:57;;;;;;;5.80;2.50;;;18.50;71.00;;;;;;6257745;22;20147;-80
2022/11/04 01:33:23;;;;;;;3.80;2.08;;;18.50;71.00;;;;;;6282852;22;20128;-80
2022/11/04 01:35:50;;;;;;;5.40;2.30;;;18.50;70.70;;;;;;6283175;22;20166;-79
2022/11/04 01:38:16;;;;;;;5.30;2.38;;;18.50;71.00;;;;;;6282762;22;20132;-80
2022/11/04 01:40:46;;;;;;;5.20;2.40;;;18.50;71.00;;;;;;6310621;22;20132;-79
2022/11/04 01:43:16;;;;;;;4.90;2.20;;;18.50;70.70;;;;;;6231579;22;20235;-80
2022/11/04 01:45:53;;;;;;;4.80;2.08;;;18.50;71.00;;;;;;6282838;22;20158;-80
2022/11/04 01:48:23;;;;;;;3.60;2.25;;;18.50;70.80;;;;;;6309527;22;20164;-79
2022/11/04 01:50:49;;;;;;;6.10;2.38;;;18.50;71.30;;;;;;6309811;22;20128;-80
2022/11/04 01:53:17;;;;;;;5.20;2.13;;;18.40;71.00;;;;;;6309318;22;20235;-80
2022/11/04 01:55:47;;;;;;;5.95;2.50;;;18.50;71.10;;;;;;6309901;22;20535;-79
2022/11/04 01:58:15;;;;;;;4.25;2.42;;;18.50;71.40;;;;;;6282651;22;20163;-79
2022/11/04 02:00:41;;;;;;;4.13;2.00;;;18.50;71.00;;;;;;6281826;22;20132;-79
2022/11/04 02:03:08;;;;;;;4.00;2.03;;;18.50;71.40;;;;;;6309866;22;20136;-80
2022/11/04 02:05:35;;;;;;;5.25;2.30;;;18.50;71.00;;;;;;6282326;22;20143;-79
2022/11/04 02:08:01;;;;;;;4.82;2.47;;;18.50;70.90;;;;;;6309089;22;20192;-80
2022/11/04 02:10:28;;;;;;;3.72;2.10;;;18.50;71.30;;;;;;6282131;22;20140;-79
2022/11/04 02:12:55;;;;;;;5.85;2.22;;;18.50;71.00;;;;;;6282606;22;20128;-80
2022/11/04 02:15:41;;;;;;;4.10;2.13;;;18.50;71.40;;;;;;6309203;22;20510;-79
2022/11/04 02:18:29;;;;;;;3.75;2.33;;;18.40;70.90;;;;;;6213331;22;20206;-79
2022/11/04 02:21:34;;;;;;;6.03;2.20;;;18.50;71.40;;;;;;6309443;22;20136;-80
2022/11/04 02:24:30;;;;;;;6.07;2.20;;;18.50;71.30;;;;;;6308859;22;20197;-80
2022/11/04 02:27:08;;;;;;;3.67;2.10;;;18.50;71.20;;;;;;6309143;22;20171;-80
2022/11/04 02:29:44;;;;;;;3.40;2.00;;;18.50;71.10;;;;;;6309365;22;20602;-80
2022/11/04 02:32:23;;;;;;;6.00;2.28;;;18.40;71.50;;;;;;6231815;22;20662;-79
2022/11/04 02:35:25;;;;;;;3.97;2.40;;;18.40;71.20;;;;;;6308986;22;20155;-79
2022/11/04 02:38:15;;;;;;;6.60;2.65;;;18.50;71.50;;;;;;6308636;22;20142;-79
2022/11/04 02:40:59;;;;;;;6.45;2.70;;;18.40;71.70;;;;;;6309120;22;20190;-80
2022/11/04 02:43:45;;;;;;;5.75;2.22;;;18.50;71.70;;;;;;6281347;22;20132;-80
2022/11/04 02:46:35;;;;;;;6.43;2.42;;;18.40;71.80;;;;;;6308700;22;20136;-79
2022/11/04 02:49:13;;;;;;;5.63;2.30;;;18.40;71.60;;;;;;6240570;22;20196;-80
2022/11/04 02:51:45;;;;;;;5.07;2.55;;;18.40;71.90;;;;;;6309127;22;20132;-80
2022/11/04 02:54:17;;;;;;;4.35;2.30;;;18.40;71.60;;;;;;6309034;22;20563;-80
2022/11/04 02:56:45;;;;;;;5.82;2.50;;;18.40;71.80;;;;;;6308401;22;20132;-79
2022/11/04 02:59:46;;;;;;;4.53;2.05;;;18.40;71.80;;;;;;6308501;22;20140;-79
2022/11/04 03:02:15;;;;;;;5.38;2.45;;;18.40;71.80;;;;;;6308157;22;20151;-80
2022/11/04 03:04:44;;;;;;;4.00;2.40;;;18.40;71.50;;;;;;6281533;22;20136;-80
2022/11/04 03:07:10;;;;;;;5.40;2.38;;;18.40;71.60;;;;;;6283399;22;20245;-79
2022/11/04 03:09:37;;;;;;;8.13;2.50;;;18.40;71.60;;;;;;6308355;22;20132;-79
2022/11/04 03:12:06;;;;;;;7.97;2.30;;;18.40;71.70;;;;;;6306967;22;20148;-80
2022/11/04 03:14:36;;;;;;;3.05;2.20;;;18.40;71.60;;;;;;6308272;22;20128;-79
2022/11/04 03:17:05;;;;;;;6.47;2.17;;;18.40;71.90;;;;;;6281137;22;20205;-80
2022/11/04 03:19:42;;;;;;;5.50;2.55;;;18.40;71.20;;;;;;6307124;22;20449;-79
2022/11/04 03:22:16;;;;;;;7.65;2.20;;;18.40;71.40;;;;;;6308732;22;20124;-80
2022/11/04 03:24:46;;;;;;;4.50;2.30;;;18.40;71.60;;;;;;6205764;22;20152;-79
2022/11/04 03:27:47;;;;;;;4.82;2.13;;;18.40;71.90;;;;;;6229783;22;20176;-80
2022/11/04 03:30:16;;;;;;;4.47;2.25;;;18.40;72.00;;;;;;6308735;22;20154;-80
2022/11/04 03:32:52;;;;;;;4.07;2.30;;;18.40;72.10;;;;;;6308463;22;20132;-80
2022/11/04 03:35:18;;;;;;;5.88;2.30;;;18.40;71.80;;;;;;6308647;22;20590;-80
2022/11/04 03:37:44;;;;;;;6.28;2.40;;;18.40;72.20;;;;;;6308600;22;20170;-79
2022/11/04 03:40:10;;;;;;;5.95;2.45;;;18.30;71.40;;;;;;6308264;22;20132;-79
2022/11/04 03:42:39;;;;;;;3.53;2.30;;;18.40;71.60;;;;;;6306630;22;20632;-79
2022/11/04 03:45:05;;;;;;;4.50;2.30;;;18.40;71.90;;;;;;6306586;22;20144;-79
2022/11/04 03:47:31;;;;;;;4.72;2.30;;;18.40;71.80;;;;;;6309662;22;20214;-79
2022/11/04 03:50:12;;;;;;;6.18;2.30;;;18.40;72.20;;;;;;6308371;22;20129;-79
2022/11/04 03:52:38;;;;;;;3.60;2.13;;;18.30;71.80;;;;;;6308845;22;20155;-79
2022/11/04 03:55:08;;;;;;;4.00;2.50;;;18.40;71.70;;;;;;6308869;22;20131;-80
2022/11/04 03:57:55;;;;;;;4.60;1.98;;;18.40;72.00;;;;;;6256819;22;20159;-80
2022/11/04 04:00:22;;;;;;;4.45;2.20;;;18.40;71.80;;;;;;6309818;22;20136;-80
2022/11/04 04:03:03;;;;;;;5.43;2.10;;;18.40;71.90;;;;;;6308337;22;20259;-80
2022/11/04 04:05:42;;;;;;;3.85;2.30;;;18.40;71.50;;;;;;6308782;22;20165;-80
2022/11/04 04:08:14;;;;;;;5.07;2.28;;;18.40;72.10;;;;;;6259048;22;20649;-80
2022/11/04 04:11:14;;;;;;;4.20;2.10;;;18.40;72.00;;;;;;6309970;22;20155;-79
2022/11/04 04:13:49;;;;;;;5.40;2.20;;;18.30;71.80;;;;;;6308916;22;20144;-79
2022/11/04 04:16:29;;;;;;;5.88;2.50;;;18.30;72.00;;;;;;6308546;22;20612;-80
2022/11/04 04:19:01;;;;;;;3.15;2.10;;;18.30;72.80;;;;;;6258617;22;20196;-79
2022/11/04 04:21:32;;;;;;;3.00;2.10;;;18.30;72.20;;;;;;6309722;22;20155;-80
2022/11/04 04:29:16;;;;;;;7.90;2.15;;;18.30;72.10;;;;;;6308921;22;20128;-79
2022/11/04 04:31:49;;;;;;;4.75;2.15;;;18.30;72.30;;;;;;6308980;22;20500;-79
2022/11/04 04:34:18;;;;;;;5.13;2.50;;;18.30;72.30;;;;;;6311561;22;20125;-80
2022/11/04 04:36:53;;;;;;;3.63;2.15;;;18.30;72.10;;;;;;6284069;22;20166;-81
2022/11/04 04:47:35;;;;;;;5.15;2.20;;;18.30;72.00;;;;;;6309276;22;20191;-79
2022/11/04 04:50:01;;;;;;;4.93;2.08;;;18.30;72.30;;;;;;6281889;22;20151;-80
2022/11/04 04:52:30;;;;;;;3.88;2.28;;;18.30;72.00;;;;;;6309482;22;20159;-79
2022/11/04 04:54:56;;;;;;;4.15;2.58;;;18.30;72.20;;;;;;6309947;22;20136;-80
2022/11/04 04:57:22;;;;;;;4.38;2.28;;;18.30;72.00;;;;;;6309475;22;20221;-80
2022/11/04 04:59:51;;;;;;;3.60;2.30;;;18.30;72.10;;;;;;6331894;22;20200;-77
2022/11/04 05:02:17;;;;;;;5.43;2.17;;;18.30;72.10;;;;;;6257616;22;20179;-77
2022/11/04 05:04:49;;;;;;;3.63;2.10;;;18.30;72.20;;;;;;6297624;22;20543;-79
2022/11/04 05:07:14;;;;;;;4.00;2.25;;;18.30;72.10;;;;;;6282568;22;20201;-80
2022/11/04 05:09:44;;;;;;;3.40;2.22;;;18.30;72.10;;;;;;6283466;22;20144;-80
2022/11/04 05:12:14;;;;;;;5.00;2.22;;;18.30;72.00;;;;;;6257702;22;20148;-80
2022/11/04 05:14:42;;;;;;;3.97;2.13;;;18.30;71.90;;;;;;6283484;22;20147;-80
2022/11/04 05:17:08;;;;;;;4.03;2.50;;;18.30;72.30;;;;;;6283616;22;20132;-80
2022/11/04 05:19:36;;;;;;;8.27;2.50;;;18.30;72.20;;;;;;6312212;22;20143;-80
2022/11/04 05:22:06;;;;;;;3.55;2.33;;;18.30;72.20;;;;;;6312697;22;20132;-80
2022/11/04 05:24:32;;;;;;;4.35;2.20;;;18.30;72.20;;;;;;6233970;22;20155;-80
2022/11/04 05:26:58;;;;;;;3.55;2.30;;;18.30;71.80;;;;;;6286275;22;20599;-80
2022/11/04 05:29:24;;;;;;;3.13;2.20;;;18.30;72.30;;;;;;6313191;22;20129;-80
2022/11/04 05:31:50;;;;;;;5.28;2.55;;;18.30;71.80;;;;;;6313677;22;20138;-80
2022/11/04 05:34:16;;;;;;;4.05;2.38;;;18.30;72.00;;;;;;6313611;22;20132;-80
2022/11/04 05:36:46;;;;;;;3.45;2.50;;;18.30;72.10;;;;;;6286951;22;20591;-80
2022/11/04 05:39:12;;;;;;;4.95;2.20;;;18.30;72.00;;;;;;6259836;22;20176;-80
2022/11/04 05:41:38;;;;;;;2.67;2.15;;;18.30;72.10;;;;;;6313277;22;20132;-80
2022/11/04 05:44:05;;;;;;;4.57;2.40;;;18.30;72.30;;;;;;6313461;22;20218;-80
2022/11/04 05:46:31;;;;;;;3.53;2.25;;;18.30;72.00;;;;;;6286003;22;20168;-80
2022/11/04 05:49:01;;;;;;;5.22;2.30;;;18.30;72.00;;;;;;6313133;22;20198;-80
2022/11/04 05:51:28;;;;;;;3.85;2.30;;;18.30;72.20;;;;;;6234286;22;20158;-80
2022/11/04 05:53:54;;;;;;;6.38;2.38;;;18.30;72.30;;;;;;6286774;22;20188;-81
2022/11/04 05:56:20;;;;;;;3.60;2.33;;;18.30;72.30;;;;;;6286371;22;20132;-80
2022/11/04 05:58:46;;;;;;;3.80;2.00;;;18.30;72.20;;;;;;6312912;22;20530;-80
2022/11/04 06:01:26;;;;;;;3.20;2.05;;;18.30;71.90;;;;;;6310535;22;20219;-80
2022/11/04 06:03:52;;;;;;;4.55;2.10;;;18.20;72.20;;;;;;6282850;22;20131;-79
2022/11/04 06:06:19;;;;;;;3.63;1.95;;;18.30;71.20;;;;;;6310682;22;20137;-80
2022/11/04 06:08:45;;;;;;;4.38;1.90;;;18.30;71.60;;;;;;6282770;22;20620;-79
2022/11/04 06:11:16;;;;;;;4.55;2.10;;;18.30;72.50;;;;;;6282789;22;20132;-80
2022/11/04 06:13:42;;;;;;;5.25;2.40;;;18.30;72.10;;;;;;6282523;22;20144;-80
2022/11/04 06:16:07;;;;;;;4.65;2.15;;;18.30;72.00;;;;;;6309973;22;20185;-79
2022/11/04 06:18:33;;;;;;;2.72;1.90;;;18.30;71.40;;;;;;6282744;22;20143;-80
2022/11/04 06:21:23;;;;;;;3.80;1.80;;;18.30;71.30;;;;;;6310063;22;20136;-79
2022/11/04 06:23:50;;;;;;;3.25;1.95;;;18.40;70.80;;;;;;6310458;22;20132;-80
2022/11/04 06:26:16;;;;;;;4.22;2.00;;;18.40;71.00;;;;;;6282413;22;20186;-79
2022/11/04 06:28:42;;;;;;;3.33;1.90;;;18.40;71.60;;;;;;6282138;22;20526;-79
2022/11/04 06:31:09;;;;;;;4.78;2.00;;;18.40;70.40;;;;;;6309517;22;20128;-79
2022/11/04 06:33:35;;;;;;;2.72;2.05;;;18.40;70.40;;;;;;6309409;22;20136;-80
2022/11/04 06:36:02;;;;;;;4.45;2.17;;;18.40;70.80;;;;;;6282422;22;20203;-80
2022/11/04 06:38:33;;;;;;;4.40;2.03;;;18.50;70.30;;;;;;6309893;22;20143;-79
2022/11/04 06:40:59;;;;;;;3.85;2.00;;;18.50;70.50;;;;;;6256088;22;20574;-80
2022/11/04 06:43:29;;;;;;;3.33;2.05;;;18.50;70.30;;;;;;6309727;22;20618;-80
2022/11/04 06:45:56;;;;;;;3.58;2.10;;;18.50;71.20;;;;;;6255995;22;20234;-80
2022/11/04 06:48:22;;;;;;;3.03;2.05;;;18.50;70.50;;;;;;6282144;22;20233;-79
2022/11/04 06:50:48;;;;;;;2.22;1.98;;;18.50;70.20;;;;;;6309673;22;20560;-80
2022/11/04 06:53:14;;;;;;;3.85;1.95;;;18.50;71.00;;;;;;6282222;22;20196;-80
2022/11/04 06:55:40;;;;;;;3.88;2.25;;;18.50;70.40;;;;;;6308996;22;20159;-80
2022/11/04 06:58:05;;;;;;;2.97;1.67;;;18.50;70.90;;;;;;6285273;22;20167;-79
2022/11/04 07:00:32;;;;;;;4.07;2.40;;;18.50;70.60;;;;;;6310161;22;20136;-79
2022/11/04 07:03:02;;;;;;;4.40;2.25;;;18.50;71.50;;;;;;6284820;22;20136;-79
2022/11/04 07:05:28;;;;;;;2.25;1.90;;;18.50;70.00;;;;;;6230606;22;20656;-80
2022/11/04 07:07:54;;;;;;;2.55;1.85;;;18.50;70.10;;;;;;6294780;22;20243;-79
2022/11/04 07:10:20;;;;;;;4.03;1.88;;;18.50;70.30;;;;;;6285207;22;20144;-80
2022/11/04 07:12:46;;;;;;;3.75;2.00;;;18.50;69.80;;;;;;6312025;22;20155;-80
2022/11/04 07:15:12;;;;;;;2.17;1.85;;;18.60;70.40;;;;;;6310700;22;20479;-80
2022/11/04 07:17:38;;;;;;;2.88;1.80;;;18.50;70.40;;;;;;6311536;22;20264;-79
2022/11/04 07:20:05;;;;;;;2.65;2.08;;;18.50;70.20;;;;;;6312848;22;20136;-80
2022/11/04 07:22:34;;;;;;;3.47;1.80;;;18.50;70.80;;;;;;6312836;22;20132;-80
2022/11/04 07:25:05;;;;;;;2.20;1.90;;;18.60;70.20;;;;;;6262330;22;20159;-80
2022/11/04 07:27:31;;;;;;;3.45;1.85;;;18.50;70.10;;;;;;6240427;22;20236;-80
2022/11/04 07:29:57;;;;;;;3.53;2.20;;;18.50;69.80;;;;;;6319599;22;20191;-80
2022/11/04 07:32:22;;;;;;;3.67;1.85;;;18.60;70.00;;;;;;6320044;22;20132;-81
2022/11/04 07:34:48;;;;;;;3.88;1.63;;;18.60;69.70;;;;;;6319466;22;20544;-80
2022/11/04 07:37:14;;;;;;;3.13;1.75;;;18.60;69.80;;;;;;6317681;22;20150;-80
2022/11/04 07:39:44;;;;;;;2.42;1.83;;;18.60;69.80;;;;;;6317376;22;20136;-80
2022/11/04 07:42:10;;;;;;;3.22;1.58;;;18.60;69.60;;;;;;6265318;22;20219;-80
2022/11/04 07:44:36;;;;;;;4.07;2.10;;;18.60;69.90;;;;;;6319733;22;20433;-80
2022/11/04 07:47:02;;;;;;;2.92;1.80;;;18.60;69.60;;;;;;6317758;22;20160;-80
2022/11/04 07:49:32;;;;;;;2.30;1.65;;;18.60;69.60;;;;;;6317033;22;20479;-81
2022/11/04 07:51:58;;;;;;;2.95;1.90;;;18.60;70.00;;;;;;6265388;22;20155;-80
2022/11/04 07:54:24;;;;;;;3.50;2.10;;;18.60;70.00;;;;;;6321694;22;20506;-80
2022/11/04 07:56:49;;;;;;;2.78;1.73;;;18.60;69.80;;;;;;6321080;22;20132;-80
2022/11/04 07:59:15;;;;;;;3.45;1.63;;;18.60;69.60;;;;;;6319978;22;20186;-80
2022/11/04 08:01:41;;;;;;;3.80;2.17;;;18.70;69.40;;;;;;6320471;22;20129;-80
2022/11/04 08:04:07;;;;;;;2.97;2.28;;;18.70;69.30;;;;;;6290424;22;20146;-80
2022/11/04 08:06:33;;;;;;;3.15;1.92;;;18.70;69.30;;;;;;6318586;22;20129;-81
2022/11/04 08:08:59;;;;;;;2.80;1.90;;;18.70;69.30;;;;;;6312507;22;20646;-80
2022/11/04 08:11:27;;;;;;;2.92;1.83;;;18.70;69.30;;;;;;6315339;22;20140;-80
2022/11/04 08:13:53;;;;;;;2.55;1.80;;;18.70;69.30;;;;;;6312923;22;20132;-80
2022/11/04 08:16:20;;;;;;;2.60;1.75;;;18.70;68.70;;;;;;6313723;22;20579;-80
2022/11/04 08:18:47;;;;;;;4.35;1.65;;;18.60;68.80;;;;;;6313279;22;20147;-81
2022/11/04 08:21:22;;;;;;;2.75;1.65;;;18.70;69.10;;;;;;6313180;22;20140;-80
2022/11/04 08:23:56;;;;;;;2.55;1.80;;;18.70;68.60;;;;;;6260932;22;20150;-80
2022/11/04 08:26:22;;;;;;;2.58;1.63;;;18.70;68.20;;;;;;6235515;22;20158;-80
2022/11/04 08:28:55;;;;;;;2.22;1.60;;;18.70;68.40;;;;;;6286612;22;20203;-81
2022/11/04 08:31:30;;;;;;;1.98;1.70;;;18.80;68.00;;;;;;6260237;22;20144;-80
2022/11/04 08:34:04;;;;;;;1.92;1.58;;;18.70;68.80;;;;;;6261076;22;20147;-81
2022/11/04 08:36:33;;;;;;;2.78;1.90;;;18.70;68.30;;;;;;6236256;22;20195;-81
2022/11/04 08:39:03;;;;;;;4.05;2.05;;;18.70;68.90;;;;;;6287920;22;20568;-81
2022/11/04 08:41:29;;;;;;;3.55;1.67;;;18.80;68.50;;;;;;6261810;22;20152;-81
2022/11/04 08:44:03;;;;;;;2.63;1.80;;;18.70;68.10;;;;;;6287426;22;20234;-81
2022/11/04 08:46:32;;;;;;;2.28;1.70;;;18.80;68.40;;;;;;6314431;22;20578;-80
2022/11/04 08:49:01;;;;;;;2.72;1.65;;;18.80;68.90;;;;;;6262270;22;20191;-80
2022/11/04 08:51:29;;;;;;;1.50;1.35;;;18.70;68.70;;;;;;6237429;22;20180;-81
2022/11/04 08:53:58;;;;;;;2.22;1.63;;;18.80;68.80;;;;;;6262827;22;20152;-81
2022/11/04 08:56:28;;;;;;;2.38;1.90;;;18.80;67.90;;;;;;6261808;22;20231;-80
2022/11/04 08:58:59;;;;;;;2.63;1.88;;;18.80;68.50;;;;;;6261579;22;20159;-80
2022/11/04 09:01:27;;;;;;;3.13;1.63;;;18.80;68.10;;;;;;6262370;22;20259;-81
2022/11/04 09:03:55;;;;;;;2.38;1.50;;;18.80;66.90;;;;;;6236189;22;20657;-80
2022/11/04 09:06:25;;;;;;;2.53;1.38;;;18.80;67.90;;;;;;6235662;22;20170;-80
2022/11/04 09:08:56;;;;;;;2.13;1.48;;;18.80;67.70;;;;;;6210181;22;20286;-80
2022/11/04 09:11:25;;;;;;;2.05;1.48;;;18.80;67.90;;;;;;6262905;22;20148;-81
2022/11/04 09:13:53;;;;;;;3.65;1.80;;;18.80;67.60;;;;;;6286621;22;20155;-80
2022/11/04 09:16:20;;;;;;;3.25;1.55;;;18.80;68.00;;;;;;6261913;22;20152;-80
2022/11/04 09:18:47;;;;;;;3.97;1.90;;;18.80;67.90;;;;;;6260246;22;20152;-80
2022/11/04 09:21:15;;;;;;;4.25;1.80;;;18.80;68.00;;;;;;6235186;22;20152;-81
2022/11/04 09:23:42;;;;;;;2.45;1.50;;;18.80;67.90;;;;;;6210342;22;20148;-80
2022/11/04 09:26:12;;;;;;;2.38;1.60;;;18.80;67.60;;;;;;6233979;22;20155;-80
2022/11/04 09:28:40;;;;;;;3.47;1.77;;;18.80;67.50;;;;;;6236061;22;20184;-80
2022/11/04 09:31:12;;;;;;;3.67;1.80;;;18.90;67.60;;;;;;6262284;22;20155;-80
2022/11/04 09:33:42;;;;;;;2.83;1.63;;;18.80;67.40;;;;;;6236835;22;20208;-81
2022/11/04 09:36:09;;;;;;;3.83;1.80;;;18.80;66.90;;;;;;6261341;22;20148;-80
2022/11/04 09:38:37;;;;;;;2.15;1.65;;;18.80;67.40;;;;;;6286438;22;20151;-80
2022/11/04 09:41:28;;;;;;;2.90;1.83;;;18.90;67.60;;;;;;6235421;22;20171;-80
2022/11/04 09:44:18;;;;;;;2.00;1.48;;;18.90;67.70;;;;;;6269104;22;20239;-80
2022/11/04 09:46:47;;;;;;;2.08;1.67;;;18.80;67.10;;;;;;6288229;22;20148;-81
2022/11/04 09:49:15;;;;;;;1.70;1.60;;;18.80;67.10;;;;;;6283035;22;20159;-81
2022/11/04 09:51:50;;;;;;;2.65;1.70;;;18.90;67.30;;;;;;6283106;22;20584;-81
2022/11/04 09:54:32;;;;;;;2.25;1.70;;;18.90;67.40;;;;;;6282155;22;20147;-80
2022/11/04 09:56:58;;;;;;;2.10;1.70;;;18.80;67.60;;;;;;6309306;22;20133;-81
2022/11/04 09:59:27;;;;;;;2.53;1.73;;;18.80;67.50;;;;;;6308244;22;20498;-81
2022/11/04 10:02:28;;;;;;;2.05;1.52;;;18.80;67.40;;;;;;6282790;22;20588;-81
2022/11/04 10:05:24;;;;;;;3.40;1.70;;;18.80;67.50;;;;;;6308266;22;20567;-81
2022/11/04 10:08:17;;;;;;;2.75;1.90;;;18.80;68.10;;;;;;6282380;22;20219;-79
2022/11/04 10:11:18;;;;;;;3.03;1.70;;;18.80;68.80;;;;;;6309598;22;20136;-80
2022/11/04 10:14:09;;;;;;;4.70;1.92;;;18.80;68.40;;;;;;6280108;22;20152;-80
2022/11/04 10:16:51;;;;;;;4.95;1.90;;;18.80;69.00;;;;;;6308395;22;20185;-80
2022/11/04 10:19:29;;;;;;;2.95;1.90;;;18.80;68.40;;;;;;6309353;22;20128;-80
2022/11/04 10:22:09;;;;;;;2.63;1.88;;;18.80;68.90;;;;;;6309592;22;20159;-79
2022/11/04 10:24:42;;;;;;;1.83;1.50;;;18.80;68.80;;;;;;6309408;22;20143;-80
2022/11/04 10:27:16;;;;;;;2.95;1.65;;;18.80;68.50;;;;;;6281588;22;20175;-79
2022/11/04 10:29:44;;;;;;;1.95;1.70;;;18.80;68.10;;;;;;6309378;22;20551;-79
2022/11/04 10:32:20;;;;;;;2.40;1.70;;;18.80;68.10;;;;;;6282037;22;20486;-80
2022/11/04 10:34:53;;;;;;;3.03;1.58;;;18.70;68.00;;;;;;6232042;22;20152;-80
2022/11/04 10:37:19;;;;;;;3.45;1.70;;;18.80;68.00;;;;;;6309168;22;20213;-81
2022/11/04 10:39:45;;;;;;;2.85;1.50;;;18.80;67.60;;;;;;6308072;22;20615;-79
2022/11/04 10:42:16;;;;;;;2.55;1.67;;;18.80;67.60;;;;;;6310116;22;20559;-81
2022/11/04 10:44:42;;;;;;;3.10;2.03;;;18.80;67.60;;;;;;6282942;22;20240;-80
2022/11/04 10:47:17;;;;;;;2.00;1.60;;;18.80;67.20;;;;;;6309281;22;20536;-80
2022/11/04 10:49:58;;;;;;;1.98;1.55;;;18.80;67.30;;;;;;6307714;22;20186;-79
2022/11/04 10:52:24;;;;;;;4.07;1.33;;;18.80;67.40;;;;;;6309233;22;20140;-81
2022/11/04 10:54:50;;;;;;;2.22;1.55;;;18.80;66.60;;;;;;6307993;22;20166;-79
2022/11/04 10:57:20;;;;;;;3.33;1.60;;;18.80;66.90;;;;;;6310293;22;20147;-80
2022/11/04 10:59:59;;;;;;;2.17;1.77;;;18.90;67.00;;;;;;6311480;22;20132;-81
2022/11/04 11:02:44;;;;;;;2.63;1.80;;;18.80;67.00;;;;;;6232815;22;20148;-80
2022/11/04 11:05:23;;;;;;;2.20;1.60;;;18.90;67.30;;;;;;6309841;22;20136;-80
2022/11/04 11:07:51;;;;;;;3.25;1.60;;;18.80;66.90;;;;;;6299007;22;20215;-82
2022/11/04 11:10:21;;;;;;;3.30;1.65;;;18.80;67.40;;;;;;6311192;22;20140;-80
2022/11/04 11:13:01;;;;;;;2.55;1.80;;;18.90;67.30;;;;;;6257450;22;20140;-80
2022/11/04 11:15:34;;;;;;;3.10;1.70;;;18.80;67.10;;;;;;6311066;22;20128;-81
2022/11/04 11:18:20;;;;;;;2.80;1.60;;;18.90;66.60;;;;;;6258134;22;20212;-81
2022/11/04 11:20:49;;;;;;;2.50;1.52;;;18.90;66.80;;;;;;6311192;22;20135;-81
2022/11/04 11:23:53;;;;;;;2.58;1.50;;;18.90;67.60;;;;;;6261343;22;20140;-81
2022/11/04 11:26:59;;;;;;;3.42;1.60;;;18.90;67.40;;;;;;6284996;22;20171;-81
2022/11/04 11:30:04;;;;;;;3.72;1.40;;;18.90;66.90;;;;;;6310750;22;20163;-79
2022/11/04 11:33:10;;;;;;;4.63;2.00;;;18.90;66.90;;;;;;6310682;22;20138;-80
2022/11/04 11:36:16;;;;;;;3.40;1.60;;;18.90;67.30;;;;;;6311106;22;20140;-81
2022/11/04 11:39:22;;;;;;;3.22;1.70;;;18.90;67.10;;;;;;6311266;22;20147;-79
2022/11/04 11:42:28;;;;;;;2.97;1.60;;;18.90;67.00;;;;;;6311056;22;20534;-80
2022/11/04 11:45:34;;;;;;;3.25;1.77;;;18.90;66.70;;;;;;6289690;22;20205;-80
2022/11/04 11:48:39;;;;;;;3.85;1.70;;;18.90;66.70;;;;;;6307333;22;20183;-80
2022/11/04 11:51:45;;;;;;;3.95;1.70;;;18.90;67.40;;;;;;6310254;22;20140;-80
2022/11/04 11:54:51;;;;;;;3.75;1.70;;;18.90;67.30;;;;;;6314247;22;20144;-80
2022/11/04 11:57:49;;;;;;;3.72;1.98;;;18.80;67.60;;;;;;6317537;22;20186;-79
2022/11/04 12:00:58;;;;;;;3.47;1.90;;;18.90;66.70;;;;;;6293257;22;20144;-80
2022/11/04 12:04:06;;;;;;;3.50;1.60;;;18.90;66.80;;;;;;6317529;22;20144;-80
2022/11/04 12:06:59;;;;;;;4.53;2.08;;;18.90;67.70;;;;;;6317817;22;20190;-80
2022/11/04 12:09:49;;;;;;;1.80;1.48;;;18.90;67.20;;;;;;6251836;22;20164;-79
2022/11/04 12:12:41;;;;;;;2.22;1.70;;;18.90;66.60;;;;;;6294089;22;20144;-79
2022/11/04 12:15:39;;;;;;;2.40;1.63;;;18.90;66.00;;;;;;6320103;22;20199;-79
2022/11/04 12:18:29;;;;;;;3.97;1.88;;;18.90;67.00;;;;;;6323867;22;20174;-79
2022/11/04 12:21:32;;;;;;;2.55;1.65;;;18.90;67.00;;;;;;6330257;22;20133;-80
2022/11/04 12:24:40;;;;;;;2.40;1.48;;;18.90;66.40;;;;;;6329897;22;20223;-79
2022/11/04 12:27:39;;;;;;;3.78;1.65;;;18.90;66.50;;;;;;6300510;22;20209;-79
2022/11/04 12:30:36;;;;;;;3.88;1.67;;;18.90;66.10;;;;;;6281772;22;20155;-78
2022/11/04 12:33:17;;;;;;;4.28;1.67;;;18.90;66.40;;;;;;6306191;22;20692;-78
2022/11/04 12:35:56;;;;;;;6.53;1.92;;;18.90;66.10;;;;;;6326666;22;20128;-80
2022/11/04 12:38:49;;;;;;;4.38;2.00;;;18.90;66.10;;;;;;6300119;22;20214;-79
2022/11/04 12:41:38;;;;;;;4.50;1.90;;;18.90;65.80;;;;;;6326621;22;20215;-79
2022/11/04 12:44:29;;;;;;;4.22;1.60;;;18.90;66.90;;;;;;6220209;22;20152;-80
2022/11/04 12:47:20;;;;;;;5.30;1.80;;;19.00;66.30;;;;;;6256369;22;20148;-80
2022/11/04 12:50:12;;;;;;;6.45;2.20;;;18.90;65.80;;;;;;6325491;22;20132;-80
2022/11/04 12:52:59;;;;;;;7.93;2.20;;;19.00;66.60;;;;;;6252716;22;20163;-80
2022/11/04 12:55:55;;;;;;;6.88;2.25;;;19.00;66.30;;;;;;6206804;22;20178;-80
2022/11/04 12:58:38;;;;;;;5.18;1.90;;;18.90;66.30;;;;;;6322657;22;20132;-80
2022/11/04 13:01:13;;;;;;;4.57;1.55;;;18.90;66.90;;;;;;6243934;22;20155;-80
2022/11/04 13:03:51;;;;;;;3.95;1.95;;;18.90;66.10;;;;;;6243516;22;20579;-80
2022/11/04 13:06:27;;;;;;;6.97;1.92;;;18.90;66.50;;;;;;6218335;22;20151;-80
2022/11/04 13:09:02;;;;;;;6.05;2.05;;;19.00;67.00;;;;;;6243615;22;20199;-80
2022/11/04 13:11:38;;;;;;;8.68;2.00;;;19.00;65.90;;;;;;6192291;22;20151;-80
2022/11/04 13:14:15;;;;;;;6.03;2.03;;;19.00;65.90;;;;;;6242208;22;20152;-80
2022/11/04 13:16:45;;;;;;;7.20;2.30;;;19.00;65.40;;;;;;6241583;22;20148;-80
2022/11/04 13:19:36;;;;;;;6.80;2.67;;;19.00;66.00;;;;;;6240463;22;20204;-80
2022/11/04 13:22:10;;;;;;;4.38;1.65;;;18.90;65.90;;;;;;6318156;22;20203;-79
2022/11/04 13:24:50;;;;;;;5.70;1.83;;;19.00;65.50;;;;;;6241378;22;20166;-79
2022/11/04 13:27:22;;;;;;;4.32;1.90;;;18.90;66.50;;;;;;6244133;22;20177;-80
2022/11/04 13:29:59;;;;;;;6.15;1.83;;;18.90;65.90;;;;;;6239428;22;20164;-80
2022/11/04 13:32:32;;;;;;;7.10;2.00;;;18.90;66.10;;;;;;6192728;22;20556;-80
2022/11/04 13:35:14;;;;;;;5.38;1.73;;;18.90;66.50;;;;;;6215335;22;20145;-79
2022/11/04 13:38:04;;;;;;;4.97;1.85;;;19.00;66.40;;;;;;6290607;22;20147;-79
2022/11/04 13:41:06;;;;;;;3.00;1.77;;;19.00;66.70;;;;;;6204821;22;20155;-79
2022/11/04 13:43:38;;;;;;;5.10;1.85;;;19.00;66.10;;;;;;6204833;22;20507;-80
2022/11/04 13:46:20;;;;;;;3.33;1.40;;;18.90;66.40;;;;;;6215949;22;20227;-79
2022/11/04 13:49:03;;;;;;;3.67;1.80;;;19.00;65.70;;;;;;6240221;22;20191;-80
2022/11/04 13:51:42;;;;;;;4.47;2.13;;;19.00;66.40;;;;;;6219829;22;20147;-80
2022/11/04 13:54:28;;;;;;;4.05;1.67;;;19.00;66.50;;;;;;6290004;22;20128;-80
2022/11/04 13:57:13;;;;;;;3.45;1.67;;;19.00;66.20;;;;;;6237913;22;20148;-80